Time;durP1;ratioP1;P1;durP2;ratioP2;P2;SDS_P1;SDS_P2;PMS_P1;PMS_P2;Temp;Humidity;BMP_temperature;BMP_pressure;BME280_temperature;BME280_humidity;BME280_pressure;Samples;Min_cycle;Max_cycle;Signal;HPM_P1;HPM_P2
2022/10/23 00:01:58;;;;;;;4.03;3.23;;;14.20;94.90;;;;;;5097902;28;20469;-47
2022/10/23 00:04:25;;;;;;;4.70;2.90;;;14.20;94.90;;;;;;5096293;28;20180;-43
2022/10/23 00:06:51;;;;;;;7.00;3.07;;;14.20;95.00;;;;;;5096149;28;20210;-42
2022/10/23 00:09:20;;;;;;;4.17;3.10;;;14.20;95.00;;;;;;5096405;28;20716;-43
2022/10/23 00:11:46;;;;;;;3.40;2.60;;;14.10;94.90;;;;;;5098379;28;20178;-43
2022/10/23 00:14:13;;;;;;;4.27;2.93;;;14.10;95.00;;;;;;5096174;28;20431;-44
2022/10/23 00:16:39;;;;;;;5.23;3.07;;;14.10;95.00;;;;;;5096464;28;20681;-45
2022/10/23 00:19:05;;;;;;;3.83;3.10;;;14.10;95.10;;;;;;5094232;28;20922;-46
2022/10/23 00:21:31;;;;;;;4.87;3.43;;;14.00;95.10;;;;;;5096010;28;20257;-45
2022/10/23 00:23:56;;;;;;;4.00;2.90;;;14.00;95.20;;;;;;5097228;28;20432;-44
2022/10/23 00:26:22;;;;;;;3.50;2.80;;;14.00;95.20;;;;;;5096583;28;20205;-43
2022/10/23 00:28:49;;;;;;;3.70;2.60;;;14.00;95.30;;;;;;5095988;28;20518;-45
2022/10/23 00:31:15;;;;;;;3.00;2.70;;;13.90;95.30;;;;;;5097624;28;20180;-44
2022/10/23 00:33:41;;;;;;;3.20;2.33;;;13.90;95.30;;;;;;5097944;28;20420;-42
2022/10/23 00:36:09;;;;;;;4.03;3.00;;;13.90;95.30;;;;;;5095886;28;20209;-42
2022/10/23 00:38:35;;;;;;;3.10;2.80;;;13.90;95.40;;;;;;5097969;28;20419;-42
2022/10/23 00:41:00;;;;;;;3.47;2.77;;;13.90;95.40;;;;;;5095581;28;20422;-42
2022/10/23 00:43:28;;;;;;;3.60;2.50;;;13.80;95.40;;;;;;5097536;28;20419;-43
2022/10/23 00:45:54;;;;;;;3.20;2.40;;;13.80;95.40;;;;;;5079069;28;20217;-42
2022/10/23 00:48:20;;;;;;;4.73;2.80;;;13.80;95.40;;;;;;5097631;28;20427;-41
2022/10/23 00:50:47;;;;;;;3.80;2.30;;;13.80;95.50;;;;;;5094657;28;20187;-42
2022/10/23 00:53:13;;;;;;;3.77;2.80;;;13.70;95.40;;;;;;5097134;28;20468;-42
2022/10/23 00:55:44;;;;;;;4.70;2.67;;;13.70;95.50;;;;;;5096160;28;20472;-43
2022/10/23 00:58:10;;;;;;;4.10;2.93;;;13.70;95.60;;;;;;5096391;28;20417;-43
2022/10/23 01:00:54;;;;;;;3.03;2.50;;;13.70;95.60;;;;;;5095067;28;20511;-43
2022/10/23 01:03:23;;;;;;;3.73;2.83;;;13.70;95.60;;;;;;5096445;28;20494;-44
2022/10/23 01:06:13;;;;;;;4.33;2.70;;;13.70;95.60;;;;;;5095906;28;20421;-48
2022/10/23 01:09:08;;;;;;;3.43;2.60;;;13.70;95.70;;;;;;5097038;28;20451;-43
2022/10/23 01:11:42;;;;;;;4.80;2.83;;;13.60;95.60;;;;;;5096585;28;20514;-43
2022/10/23 01:14:15;;;;;;;3.10;2.73;;;13.60;95.60;;;;;;5094831;28;20422;-45
2022/10/23 01:17:05;;;;;;;3.77;2.83;;;13.60;95.70;;;;;;5096963;28;20472;-45
2022/10/23 01:19:34;;;;;;;4.93;2.70;;;13.60;95.70;;;;;;5098725;28;20449;-43
2022/10/23 01:22:23;;;;;;;3.80;2.60;;;13.50;95.70;;;;;;5100251;28;20821;-42
2022/10/23 01:25:20;;;;;;;3.30;3.00;;;13.50;95.70;;;;;;5100539;28;20934;-45
2022/10/23 01:27:50;;;;;;;5.20;3.33;;;13.50;95.80;;;;;;5098236;28;20501;-42
2022/10/23 01:30:16;;;;;;;2.60;2.33;;;13.50;95.80;;;;;;5098450;28;20724;-43
2022/10/23 01:32:41;;;;;;;3.17;2.83;;;13.50;95.90;;;;;;5098461;28;20416;-45
2022/10/23 01:35:49;;;;;;;2.97;2.57;;;13.40;95.90;;;;;;5098030;28;20817;-43
2022/10/23 01:38:26;;;;;;;4.90;3.00;;;13.40;96.00;;;;;;5036094;28;20565;-44
2022/10/23 01:41:14;;;;;;;3.27;2.37;;;13.40;96.10;;;;;;5090280;28;20436;-46
2022/10/23 01:43:55;;;;;;;3.10;2.40;;;13.40;96.10;;;;;;5098605;28;20510;-45
2022/10/23 01:46:21;;;;;;;4.10;2.93;;;13.40;96.20;;;;;;5096384;28;20801;-42
2022/10/23 01:48:52;;;;;;;4.90;2.50;;;13.40;96.30;;;;;;5098361;28;20568;-41
2022/10/23 01:51:20;;;;;;;3.93;2.40;;;13.40;96.40;;;;;;5100168;28;20431;-42
2022/10/23 01:53:47;;;;;;;3.67;2.27;;;13.40;96.40;;;;;;5100230;28;20826;-43
2022/10/23 01:56:22;;;;;;;3.30;2.40;;;13.30;96.50;;;;;;5097840;28;20429;-42
2022/10/23 01:58:50;;;;;;;2.73;2.53;;;13.40;96.70;;;;;;5099560;28;20423;-42
2022/10/23 02:01:17;;;;;;;2.70;2.30;;;13.40;96.70;;;;;;5095917;28;20431;-41
2022/10/23 02:03:43;;;;;;;2.40;2.20;;;13.40;96.70;;;;;;5099009;28;20559;-42
2022/10/23 02:06:09;;;;;;;3.00;2.20;;;13.30;96.70;;;;;;5098774;28;20578;-45
2022/10/23 02:08:35;;;;;;;2.60;2.40;;;13.30;96.70;;;;;;5099980;28;20448;-44
2022/10/23 02:11:13;;;;;;;2.70;2.40;;;13.30;96.70;;;;;;5099526;28;20178;-43
2022/10/23 02:13:50;;;;;;;3.23;1.83;;;13.30;97.00;;;;;;5099035;28;20264;-43
2022/10/23 02:16:28;;;;;;;3.13;2.50;;;13.30;96.80;;;;;;5098875;28;20419;-43
2022/10/23 02:19:03;;;;;;;3.10;2.67;;;13.30;96.80;;;;;;5099340;28;20703;-43
2022/10/23 02:21:48;;;;;;;3.57;2.60;;;13.30;96.90;;;;;;5098488;28;20471;-43
2022/10/23 02:24:18;;;;;;;3.80;2.30;;;13.30;97.00;;;;;;5098536;28;20408;-43
2022/10/23 02:26:52;;;;;;;2.57;2.20;;;13.30;97.10;;;;;;5098986;28;20448;-43
2022/10/23 02:29:31;;;;;;;2.80;2.47;;;13.30;97.20;;;;;;5098542;28;20452;-44
2022/10/23 02:31:57;;;;;;;3.20;2.50;;;13.30;97.50;;;;;;5099106;28;20763;-44
2022/10/23 02:34:22;;;;;;;4.70;2.10;;;13.30;97.30;;;;;;5098519;28;20451;-43
2022/10/23 02:36:48;;;;;;;4.60;2.43;;;13.30;97.30;;;;;;5099996;28;20192;-43
2022/10/23 02:39:14;;;;;;;2.43;2.23;;;13.30;97.30;;;;;;5079384;28;20177;-42
2022/10/23 02:41:50;;;;;;;3.47;2.53;;;13.30;97.30;;;;;;5099646;28;20173;-46
2022/10/23 02:44:42;;;;;;;2.80;2.20;;;13.30;97.40;;;;;;5080758;28;20194;-46
2022/10/23 02:47:20;;;;;;;3.20;2.37;;;13.30;97.40;;;;;;5097866;28;20462;-42
2022/10/23 02:49:52;;;;;;;2.30;2.00;;;13.30;97.40;;;;;;5098704;28;20496;-43
2022/10/23 02:52:49;;;;;;;3.47;2.17;;;13.30;97.50;;;;;;5099315;28;20408;-44
2022/10/23 02:55:41;;;;;;;3.17;2.13;;;13.30;97.50;;;;;;5097431;28;20464;-44
2022/10/23 02:58:07;;;;;;;2.53;2.30;;;13.30;97.50;;;;;;5099539;28;20514;-45
2022/10/23 03:00:36;;;;;;;2.50;2.30;;;13.30;97.60;;;;;;5097369;28;20424;-43
2022/10/23 03:03:09;;;;;;;2.80;2.47;;;13.40;97.70;;;;;;5098626;28;20903;-44
2022/10/23 03:05:37;;;;;;;2.97;2.23;;;13.30;97.60;;;;;;5098356;28;20525;-45
2022/10/23 03:08:04;;;;;;;2.50;2.30;;;13.30;97.70;;;;;;5097737;28;20474;-44
2022/10/23 03:10:30;;;;;;;2.90;2.43;;;13.30;97.70;;;;;;5095896;28;20434;-45
2022/10/23 03:12:56;;;;;;;3.30;2.20;;;13.30;97.70;;;;;;5099099;28;20701;-42
2022/10/23 03:15:22;;;;;;;2.70;2.10;;;13.30;97.70;;;;;;5098350;28;20177;-43
2022/10/23 03:17:47;;;;;;;3.00;2.70;;;13.30;97.70;;;;;;5097706;28;21065;-43
2022/10/23 03:20:13;;;;;;;2.87;2.50;;;13.30;97.70;;;;;;5096461;28;20511;-42
2022/10/23 03:22:39;;;;;;;3.33;3.03;;;13.30;97.70;;;;;;5098139;28;20261;-42
2022/10/23 03:25:05;;;;;;;2.53;2.33;;;13.30;97.70;;;;;;5097965;28;20185;-42
2022/10/23 03:27:31;;;;;;;3.63;2.37;;;13.30;97.70;;;;;;5096925;28;20477;-42
2022/10/23 03:29:56;;;;;;;3.30;1.93;;;13.30;97.70;;;;;;5096819;28;20428;-41
2022/10/23 03:32:22;;;;;;;2.90;2.50;;;13.30;97.70;;;;;;5099177;28;20172;-42
2022/10/23 03:34:47;;;;;;;2.30;2.10;;;13.30;97.70;;;;;;5096835;28;20625;-46
2022/10/23 03:37:13;;;;;;;2.63;2.43;;;13.30;97.80;;;;;;5096670;28;20325;-43
2022/10/23 03:39:39;;;;;;;3.17;2.87;;;13.30;97.80;;;;;;5097124;28;20207;-42
2022/10/23 03:42:04;;;;;;;2.70;1.97;;;13.30;97.90;;;;;;5097371;28;20177;-42
2022/10/23 03:44:30;;;;;;;2.30;2.07;;;13.30;97.90;;;;;;5097425;28;20192;-42
2022/10/23 03:46:56;;;;;;;3.03;2.73;;;13.30;97.90;;;;;;5096983;28;20239;-44
2022/10/23 03:49:22;;;;;;;2.40;2.00;;;13.40;98.00;;;;;;5097448;28;20531;-42
2022/10/23 03:51:51;;;;;;;3.77;2.70;;;13.30;98.00;;;;;;5097166;28;20499;-41
2022/10/23 03:54:22;;;;;;;4.07;2.30;;;13.40;98.10;;;;;;5098086;28;20191;-41
2022/10/23 03:56:47;;;;;;;3.03;2.17;;;13.40;98.10;;;;;;5098701;28;20472;-45
2022/10/23 03:59:13;;;;;;;6.40;3.00;;;13.30;98.00;;;;;;5098502;28;20454;-43
2022/10/23 04:01:39;;;;;;;3.13;2.43;;;13.30;98.10;;;;;;5097568;28;20182;-46
2022/10/23 04:04:04;;;;;;;3.00;2.70;;;13.30;98.10;;;;;;5097737;28;20515;-42
2022/10/23 04:06:30;;;;;;;2.50;2.30;;;13.30;98.10;;;;;;5097118;28;20513;-42
2022/10/23 04:08:55;;;;;;;2.60;2.30;;;13.30;98.10;;;;;;5097364;28;20175;-43
2022/10/23 04:11:21;;;;;;;3.90;2.43;;;13.30;98.10;;;;;;5096853;28;20581;-43
2022/10/23 04:13:46;;;;;;;3.00;2.50;;;13.30;98.10;;;;;;5096948;28;20176;-42
2022/10/23 04:16:12;;;;;;;2.63;2.43;;;13.30;98.10;;;;;;5095609;28;20202;-41
2022/10/23 04:18:39;;;;;;;2.87;2.40;;;13.20;98.10;;;;;;5097815;28;20205;-42
2022/10/23 04:21:05;;;;;;;3.00;2.30;;;13.20;98.10;;;;;;5096031;28;20224;-44
2022/10/23 04:23:30;;;;;;;3.00;2.70;;;13.20;98.00;;;;;;5097638;28;20430;-44
2022/10/23 04:25:56;;;;;;;2.70;2.30;;;13.20;98.00;;;;;;5097525;28;20190;-42
2022/10/23 04:28:22;;;;;;;5.13;2.13;;;13.20;98.00;;;;;;5097556;28;20183;-43
2022/10/23 04:30:48;;;;;;;2.70;2.37;;;13.20;98.40;;;;;;5096974;28;20443;-42
2022/10/23 04:33:14;;;;;;;3.33;2.67;;;13.20;98.10;;;;;;5097950;28;20449;-43
2022/10/23 04:35:39;;;;;;;4.20;2.50;;;13.20;98.10;;;;;;5096110;28;20316;-43
2022/10/23 04:38:05;;;;;;;4.40;2.60;;;13.20;98.10;;;;;;5096510;28;20194;-42
2022/10/23 04:40:30;;;;;;;3.03;2.77;;;13.20;98.10;;;;;;5095139;28;20196;-43
2022/10/23 04:42:56;;;;;;;5.07;2.70;;;13.20;98.10;;;;;;5097261;28;20581;-42
2022/10/23 04:45:22;;;;;;;3.83;2.67;;;13.20;98.20;;;;;;5097502;28;20479;-43
2022/10/23 04:47:47;;;;;;;2.70;2.50;;;13.20;98.20;;;;;;5097681;28;20208;-43
2022/10/23 04:50:13;;;;;;;2.40;2.17;;;13.20;98.60;;;;;;5094252;28;20197;-44
2022/10/23 04:52:39;;;;;;;2.10;1.83;;;13.20;98.30;;;;;;5095826;28;20245;-42
2022/10/23 04:55:06;;;;;;;2.53;2.03;;;13.20;98.30;;;;;;5094746;28;20512;-44
2022/10/23 04:57:31;;;;;;;3.27;2.13;;;13.20;98.30;;;;;;5096651;28;20238;-43
2022/10/23 04:59:57;;;;;;;2.23;1.90;;;13.20;98.40;;;;;;5096643;28;20479;-43
2022/10/23 05:02:23;;;;;;;3.37;2.13;;;13.20;98.40;;;;;;5096750;28;20192;-42
2022/10/23 05:04:49;;;;;;;2.50;2.30;;;13.20;98.40;;;;;;5093300;28;20195;-44
2022/10/23 05:07:14;;;;;;;2.10;1.90;;;13.20;98.40;;;;;;5094631;28;20539;-43
2022/10/23 05:09:40;;;;;;;2.40;2.20;;;13.20;98.50;;;;;;5094549;28;20184;-42
2022/10/23 05:12:05;;;;;;;2.37;2.17;;;13.20;98.50;;;;;;5095441;28;20249;-43
2022/10/23 05:14:31;;;;;;;2.30;2.10;;;13.20;98.50;;;;;;5095800;28;20691;-43
2022/10/23 05:17:02;;;;;;;2.83;2.60;;;13.20;98.60;;;;;;5095422;28;20403;-45
2022/10/23 05:19:32;;;;;;;4.97;2.47;;;13.20;98.60;;;;;;5093925;28;20189;-46
2022/10/23 05:21:58;;;;;;;2.63;2.30;;;13.20;98.60;;;;;;5095754;28;20417;-43
2022/10/23 05:24:24;;;;;;;2.60;2.00;;;13.20;98.60;;;;;;5096721;28;20704;-43
2022/10/23 05:26:51;;;;;;;3.70;2.70;;;13.20;98.60;;;;;;5097103;28;20212;-43
2022/10/23 05:29:18;;;;;;;2.90;2.20;;;13.20;98.70;;;;;;5095473;28;20470;-43
2022/10/23 05:31:44;;;;;;;6.83;2.23;;;13.20;98.70;;;;;;5097981;28;20418;-43
2022/10/23 05:34:10;;;;;;;3.33;2.13;;;13.20;98.80;;;;;;5095104;28;21117;-44
2022/10/23 05:36:36;;;;;;;2.40;1.80;;;13.20;98.80;;;;;;5096166;28;20216;-42
2022/10/23 05:39:03;;;;;;;1.90;1.70;;;13.20;98.80;;;;;;5096799;28;20926;-43
2022/10/23 05:41:29;;;;;;;2.10;1.90;;;13.20;98.90;;;;;;5095051;28;20460;-46
2022/10/23 05:43:55;;;;;;;2.10;1.70;;;13.20;98.90;;;;;;5096919;28;20432;-42
2022/10/23 05:46:22;;;;;;;2.13;1.80;;;13.20;99.00;;;;;;5093403;28;20291;-43
2022/10/23 05:48:51;;;;;;;3.20;1.80;;;13.20;99.00;;;;;;5093486;28;20251;-44
2022/10/23 05:51:21;;;;;;;2.23;1.90;;;13.20;99.00;;;;;;5091309;28;20736;-44
2022/10/23 05:53:48;;;;;;;2.37;1.70;;;13.20;99.00;;;;;;5096303;28;20473;-43
2022/10/23 05:56:14;;;;;;;2.50;1.60;;;13.20;99.00;;;;;;5085202;28;20452;-43
2022/10/23 05:58:39;;;;;;;1.90;1.40;;;13.20;99.10;;;;;;5076272;28;20430;-45
2022/10/23 06:01:07;;;;;;;1.97;1.77;;;13.20;99.10;;;;;;5107028;28;20441;-43
2022/10/23 06:03:32;;;;;;;3.27;2.17;;;13.20;99.10;;;;;;5104908;28;20186;-44
2022/10/23 06:05:58;;;;;;;2.30;1.80;;;13.20;99.10;;;;;;5097287;28;20465;-44
2022/10/23 06:08:25;;;;;;;2.10;1.70;;;13.30;99.20;;;;;;5094973;28;20184;-43
2022/10/23 06:10:50;;;;;;;2.83;2.17;;;13.30;99.20;;;;;;5093529;28;20199;-44
2022/10/23 06:13:16;;;;;;;4.23;1.97;;;13.20;99.20;;;;;;5077352;28;20413;-44
2022/10/23 06:15:43;;;;;;;2.57;2.00;;;13.30;99.20;;;;;;5094747;28;20391;-43
2022/10/23 06:18:09;;;;;;;2.33;1.80;;;13.30;99.20;;;;;;5101559;28;20425;-43
2022/10/23 06:20:36;;;;;;;2.20;2.00;;;13.30;99.20;;;;;;5104438;28;20452;-45
2022/10/23 06:23:02;;;;;;;4.10;1.60;;;13.30;99.20;;;;;;5097703;28;20201;-45
2022/10/23 06:25:28;;;;;;;3.00;1.80;;;13.30;99.10;;;;;;5098703;28;20491;-43
2022/10/23 06:27:53;;;;;;;2.00;1.63;;;13.40;99.10;;;;;;5110851;28;20980;-43
2022/10/23 06:30:19;;;;;;;2.47;1.93;;;13.40;99.10;;;;;;5098805;28;20552;-46
2022/10/23 06:32:45;;;;;;;2.83;1.77;;;13.50;99.00;;;;;;5093781;28;20177;-44
2022/10/23 06:35:10;;;;;;;2.30;1.80;;;13.50;99.00;;;;;;5086505;28;20225;-43
2022/10/23 06:37:36;;;;;;;2.20;1.93;;;13.50;98.90;;;;;;5088479;28;20291;-45
2022/10/23 06:40:01;;;;;;;2.60;1.63;;;13.60;98.90;;;;;;5097965;28;20272;-44
2022/10/23 06:42:28;;;;;;;1.80;1.53;;;13.60;98.80;;;;;;5099649;28;20184;-44
2022/10/23 06:44:54;;;;;;;2.50;2.07;;;13.70;98.80;;;;;;5098059;28;20550;-44
2022/10/23 06:47:19;;;;;;;2.30;2.10;;;13.70;98.70;;;;;;5097676;28;20473;-43
2022/10/23 06:49:45;;;;;;;3.20;1.80;;;13.80;98.70;;;;;;5098460;28;20193;-43
2022/10/23 06:52:12;;;;;;;2.80;1.80;;;13.90;98.70;;;;;;5092587;28;20273;-44
2022/10/23 06:54:37;;;;;;;3.10;2.57;;;13.90;98.60;;;;;;5088514;28;20270;-42
2022/10/23 06:57:03;;;;;;;2.60;2.27;;;14.00;98.60;;;;;;5077791;28;20525;-43
2022/10/23 06:59:29;;;;;;;2.30;2.10;;;14.20;98.60;;;;;;5086281;28;20188;-44
2022/10/23 07:01:54;;;;;;;2.87;2.57;;;14.30;98.50;;;;;;5096936;28;20449;-44
2022/10/23 07:04:20;;;;;;;3.53;2.80;;;14.40;98.40;;;;;;5096617;28;20213;-44
2022/10/23 07:06:46;;;;;;;3.03;2.63;;;14.50;98.60;;;;;;5097298;28;20287;-44
2022/10/23 07:09:11;;;;;;;3.60;2.67;;;14.70;98.30;;;;;;5093745;28;20187;-43
2022/10/23 07:11:37;;;;;;;5.07;3.50;;;14.80;98.10;;;;;;5092598;28;20360;-43
2022/10/23 07:14:02;;;;;;;3.43;3.13;;;15.00;98.00;;;;;;5095433;28;20181;-44
2022/10/23 07:16:28;;;;;;;2.53;2.33;;;15.10;97.80;;;;;;5096135;28;20202;-44
2022/10/23 07:19:00;;;;;;;3.23;2.93;;;15.30;97.70;;;;;;5095676;28;20184;-45
2022/10/23 07:21:31;;;;;;;3.57;2.70;;;15.60;97.60;;;;;;5077803;28;20256;-44
2022/10/23 07:23:57;;;;;;;3.50;2.43;;;15.80;97.40;;;;;;5094230;28;20763;-45
2022/10/23 07:26:22;;;;;;;2.40;2.20;;;16.00;97.20;;;;;;5076328;28;20760;-45
2022/10/23 07:28:54;;;;;;;3.40;2.30;;;16.20;97.00;;;;;;5077187;28;20416;-44
2022/10/23 07:31:23;;;;;;;2.60;2.23;;;16.30;96.70;;;;;;5076887;28;20189;-45
2022/10/23 07:33:49;;;;;;;3.37;2.37;;;16.50;96.50;;;;;;5078245;28;20469;-43
2022/10/23 07:36:15;;;;;;;2.03;1.70;;;16.70;96.40;;;;;;5076862;28;20437;-47
2022/10/23 07:38:40;;;;;;;4.13;2.70;;;16.80;96.20;;;;;;5076961;28;20422;-43
2022/10/23 07:41:06;;;;;;;2.30;1.70;;;17.00;96.10;;;;;;5090981;28;20229;-44
2022/10/23 07:43:33;;;;;;;2.60;2.00;;;17.10;96.00;;;;;;5097056;28;20232;-44
2022/10/23 07:45:59;;;;;;;4.87;2.13;;;17.30;95.90;;;;;;5095189;28;20393;-44
2022/10/23 07:48:26;;;;;;;1.80;1.57;;;17.50;95.80;;;;;;5093736;28;20445;-43
2022/10/23 07:50:52;;;;;;;2.67;2.17;;;17.70;95.60;;;;;;5090750;28;20258;-43
2022/10/23 07:53:20;;;;;;;2.80;1.50;;;17.90;95.30;;;;;;5093145;28;20420;-45
2022/10/23 07:56:00;;;;;;;2.70;1.57;;;18.10;94.90;;;;;;5091056;28;20440;-44
2022/10/23 07:58:26;;;;;;;1.70;1.10;;;18.30;94.50;;;;;;5093923;28;20414;-45
2022/10/23 08:00:58;;;;;;;1.77;1.40;;;18.50;94.20;;;;;;5092743;28;20838;-44
2022/10/23 08:03:25;;;;;;;2.50;1.43;;;18.70;93.80;;;;;;5089924;28;20413;-47
2022/10/23 08:05:52;;;;;;;1.63;1.23;;;19.00;93.50;;;;;;5091599;28;20432;-44
2022/10/23 08:08:18;;;;;;;1.70;1.13;;;19.30;93.10;;;;;;5090959;28;20493;-43
2022/10/23 08:10:46;;;;;;;1.67;0.90;;;19.70;92.80;;;;;;5091651;28;20431;-45
2022/10/23 08:13:13;;;;;;;2.00;1.50;;;20.10;92.20;;;;;;5092468;28;20512;-45
2022/10/23 08:15:39;;;;;;;1.63;1.17;;;20.50;91.70;;;;;;5091426;28;20490;-42
2022/10/23 08:18:05;;;;;;;1.50;1.20;;;20.90;91.20;;;;;;5093761;28;21060;-44
2022/10/23 08:20:30;;;;;;;1.90;1.10;;;21.50;90.60;;;;;;5095415;28;20545;-44
2022/10/23 08:22:56;;;;;;;1.10;0.73;;;22.10;89.80;;;;;;5095862;28;20313;-42
2022/10/23 08:25:22;;;;;;;1.83;1.10;;;22.60;87.70;;;;;;5096421;28;20351;-44
2022/10/23 08:27:47;;;;;;;1.17;0.80;;;23.00;85.60;;;;;;5096147;28;20622;-43
2022/10/23 08:30:13;;;;;;;1.37;1.20;;;23.40;83.50;;;;;;5095959;28;20174;-46
2022/10/23 08:32:38;;;;;;;2.27;1.30;;;23.60;81.40;;;;;;5097313;28;20543;-43
2022/10/23 08:35:04;;;;;;;1.30;0.90;;;23.60;80.60;;;;;;5097177;28;20239;-42
2022/10/23 08:37:30;;;;;;;1.70;1.00;;;23.60;78.70;;;;;;5096131;28;20587;-44
2022/10/23 08:39:56;;;;;;;1.93;1.00;;;23.50;78.00;;;;;;5096685;28;20429;-44
2022/10/23 08:42:24;;;;;;;1.30;1.03;;;23.40;77.60;;;;;;5097151;28;20187;-43
2022/10/23 08:45:01;;;;;;;1.30;0.87;;;23.30;77.10;;;;;;5096738;28;20502;-43
2022/10/23 08:47:38;;;;;;;2.17;1.30;;;23.40;77.80;;;;;;5097429;28;20476;-43
2022/10/23 08:50:22;;;;;;;4.23;1.10;;;23.50;78.20;;;;;;5097183;28;20513;-41
2022/10/23 08:52:57;;;;;;;1.50;1.10;;;23.80;78.00;;;;;;5096440;28;20714;-42
2022/10/23 08:55:29;;;;;;;1.97;0.90;;;24.30;77.60;;;;;;5095305;28;20413;-43
2022/10/23 08:58:28;;;;;;;2.23;1.10;;;24.70;76.70;;;;;;5094341;28;20425;-42
2022/10/23 09:00:54;;;;;;;2.90;1.10;;;25.30;75.50;;;;;;5093473;28;20446;-43
2022/10/23 09:03:20;;;;;;;2.07;1.30;;;26.10;74.10;;;;;;5094973;28;20450;-42
2022/10/23 09:05:57;;;;;;;1.27;0.87;;;26.60;70.40;;;;;;5094498;28;20207;-44
2022/10/23 09:08:56;;;;;;;1.40;1.00;;;27.20;67.80;;;;;;5095367;28;20426;-43
2022/10/23 09:11:30;;;;;;;3.63;1.10;;;27.90;65.00;;;;;;5093422;28;20689;-44
2022/10/23 09:14:07;;;;;;;1.93;1.33;;;28.50;61.50;;;;;;5092371;28;20407;-44
2022/10/23 09:16:48;;;;;;;2.07;1.47;;;29.00;59.30;;;;;;5091975;28;20517;-44
2022/10/23 09:19:18;;;;;;;2.10;1.23;;;29.50;57.80;;;;;;5092869;28;20769;-42
2022/10/23 09:21:49;;;;;;;1.50;1.00;;;29.90;56.10;;;;;;5093005;28;20675;-44
2022/10/23 09:24:16;;;;;;;2.00;1.13;;;30.30;54.90;;;;;;5092542;28;20421;-43
2022/10/23 09:26:48;;;;;;;1.60;1.17;;;30.70;54.00;;;;;;5092402;28;20445;-45
2022/10/23 09:29:22;;;;;;;1.70;1.20;;;31.00;52.00;;;;;;5083158;28;20386;-43
2022/10/23 09:32:14;;;;;;;2.70;1.20;;;31.30;51.60;;;;;;5074445;28;20496;-44
2022/10/23 09:34:51;;;;;;;1.80;1.23;;;31.60;50.30;;;;;;5070296;28;20753;-43
2022/10/23 09:37:20;;;;;;;1.60;1.03;;;31.80;48.80;;;;;;5072809;28;20778;-43
2022/10/23 09:39:45;;;;;;;1.33;0.90;;;31.90;48.20;;;;;;5075684;28;20438;-45
2022/10/23 09:42:25;;;;;;;1.63;1.03;;;32.00;47.70;;;;;;5074572;28;20438;-42
2022/10/23 09:44:52;;;;;;;1.70;1.00;;;32.10;47.40;;;;;;5073131;28;20401;-46
2022/10/23 09:47:20;;;;;;;3.60;1.10;;;32.20;47.30;;;;;;5087583;28;20482;-45
2022/10/23 09:49:48;;;;;;;1.87;1.10;;;32.40;46.90;;;;;;5096684;28;20413;-43
2022/10/23 09:52:15;;;;;;;1.57;0.97;;;32.90;46.50;;;;;;5093852;28;20478;-45
2022/10/23 09:54:54;;;;;;;1.60;0.87;;;33.20;45.90;;;;;;5085945;28;20389;-45
2022/10/23 09:57:23;;;;;;;1.70;1.10;;;33.80;44.90;;;;;;5094615;28;20810;-44
2022/10/23 09:59:53;;;;;;;1.57;1.00;;;34.20;44.00;;;;;;5095752;28;20414;-43
2022/10/23 10:02:31;;;;;;;3.30;0.93;;;34.30;43.70;;;;;;5095634;28;20426;-46
2022/10/23 10:04:58;;;;;;;1.40;1.00;;;34.30;42.60;;;;;;5089835;28;20459;-44
2022/10/23 10:07:26;;;;;;;1.60;1.00;;;34.30;42.50;;;;;;5075381;28;20444;-44
2022/10/23 10:09:53;;;;;;;1.20;0.87;;;34.30;42.50;;;;;;5078415;28;20411;-43
2022/10/23 10:12:38;;;;;;;1.40;0.90;;;34.20;42.50;;;;;;5075901;28;20426;-43
2022/10/23 10:15:21;;;;;;;1.63;1.00;;;34.00;42.10;;;;;;5078208;28;20477;-44
2022/10/23 10:17:53;;;;;;;1.87;0.80;;;33.70;42.00;;;;;;5077174;28;20987;-44
2022/10/23 10:20:33;;;;;;;2.30;1.43;;;33.40;42.10;;;;;;5078222;28;20753;-43
2022/10/23 10:23:05;;;;;;;2.70;1.27;;;33.10;43.00;;;;;;5084800;28;20705;-44
2022/10/23 10:25:52;;;;;;;3.90;1.00;;;33.20;43.40;;;;;;5098155;28;20446;-47
2022/10/23 10:28:20;;;;;;;2.23;1.03;;;33.30;43.40;;;;;;5090068;28;20451;-44
2022/10/23 10:31:13;;;;;;;3.03;1.50;;;33.60;42.70;;;;;;5076534;28;20442;-44
2022/10/23 10:33:54;;;;;;;1.30;1.07;;;33.50;42.50;;;;;;5078996;28;20556;-44
2022/10/23 10:36:46;;;;;;;1.70;0.80;;;33.40;42.60;;;;;;5077178;28;20907;-45
2022/10/23 10:39:36;;;;;;;1.90;0.80;;;33.40;42.30;;;;;;5080457;28;20412;-45
2022/10/23 10:42:40;;;;;;;1.83;0.90;;;33.40;42.60;;;;;;5092626;28;20435;-45
2022/10/23 10:45:14;;;;;;;1.37;1.03;;;33.40;42.80;;;;;;5086664;28;20442;-44
2022/10/23 10:48:02;;;;;;;1.73;0.83;;;33.20;42.50;;;;;;5080580;28;20941;-43
2022/10/23 10:50:51;;;;;;;1.97;1.20;;;32.90;42.80;;;;;;5086733;28;20436;-44
2022/10/23 10:53:30;;;;;;;1.70;0.90;;;32.30;42.50;;;;;;5089784;28;20755;-44
2022/10/23 10:55:58;;;;;;;3.10;1.10;;;31.80;43.00;;;;;;5084065;28;20428;-43
2022/10/23 10:58:36;;;;;;;1.50;1.10;;;31.50;43.70;;;;;;5065100;28;20431;-47
2022/10/23 11:01:09;;;;;;;4.23;1.00;;;31.40;43.70;;;;;;5084223;28;20449;-45
2022/10/23 11:03:41;;;;;;;2.23;1.30;;;31.30;44.00;;;;;;5064822;28;20400;-43
2022/10/23 11:06:12;;;;;;;1.37;0.80;;;31.10;44.40;;;;;;5089437;28;20501;-44
2022/10/23 11:08:39;;;;;;;1.27;0.93;;;30.70;45.00;;;;;;5087213;28;20419;-44
2022/10/23 11:11:20;;;;;;;1.30;1.00;;;30.40;45.40;;;;;;5087709;28;20869;-44
2022/10/23 11:13:46;;;;;;;2.60;0.90;;;30.10;45.70;;;;;;5095261;28;20414;-42
2022/10/23 11:16:16;;;;;;;2.60;0.97;;;29.80;46.00;;;;;;5095717;28;20836;-43
2022/10/23 11:18:44;;;;;;;1.30;0.90;;;29.60;46.30;;;;;;5096971;28;20172;-43
2022/10/23 11:21:47;;;;;;;1.40;1.03;;;29.30;46.80;;;;;;5088439;28;20878;-43
2022/10/23 11:24:32;;;;;;;1.10;0.83;;;29.10;46.90;;;;;;5082045;28;20414;-43
2022/10/23 11:27:17;;;;;;;1.60;1.00;;;28.90;47.00;;;;;;5080084;28;20465;-44
2022/10/23 11:30:24;;;;;;;1.50;1.00;;;28.80;47.10;;;;;;5078361;28;20418;-42
2022/10/23 11:33:09;;;;;;;4.37;1.13;;;28.60;46.50;;;;;;5079257;28;20509;-43
2022/10/23 11:36:00;;;;;;;2.83;1.03;;;28.50;46.70;;;;;;5096410;28;20461;-43
2022/10/23 11:38:37;;;;;;;1.33;0.80;;;28.30;47.20;;;;;;5081861;28;20402;-44
2022/10/23 11:41:27;;;;;;;1.20;0.80;;;28.20;47.30;;;;;;5094840;28;20423;-44
2022/10/23 11:44:02;;;;;;;1.67;0.93;;;28.30;47.90;;;;;;5079820;28;20747;-44
2022/10/23 11:46:37;;;;;;;1.40;0.80;;;28.40;48.30;;;;;;5076099;28;20486;-44
2022/10/23 11:49:05;;;;;;;1.30;1.00;;;28.50;48.10;;;;;;5090145;28;20407;-43
2022/10/23 11:51:40;;;;;;;1.77;1.00;;;28.70;48.20;;;;;;5090118;28;20444;-44
2022/10/23 11:54:23;;;;;;;2.73;1.13;;;28.90;48.10;;;;;;5096561;28;20708;-44
2022/10/23 11:56:54;;;;;;;1.90;1.30;;;29.00;47.50;;;;;;5079973;28;20767;-44
2022/10/23 11:59:31;;;;;;;2.63;1.20;;;29.00;47.80;;;;;;5087402;28;20438;-43
2022/10/23 12:02:01;;;;;;;2.03;0.90;;;29.10;47.40;;;;;;5092700;28;20431;-44
2022/10/23 12:04:29;;;;;;;1.40;0.90;;;29.10;47.40;;;;;;5094301;28;20479;-46
2022/10/23 12:07:04;;;;;;;2.70;1.30;;;29.20;47.20;;;;;;5092810;28;20818;-45
2022/10/23 12:09:40;;;;;;;1.30;0.90;;;29.30;47.50;;;;;;5095419;28;20377;-45
2022/10/23 12:12:08;;;;;;;1.57;1.00;;;29.40;47.20;;;;;;5096407;28;20429;-45
2022/10/23 12:14:41;;;;;;;1.30;0.80;;;29.40;47.20;;;;;;5096297;28;20414;-44
2022/10/23 12:17:22;;;;;;;2.20;1.13;;;29.30;47.30;;;;;;5097645;28;20431;-45
2022/10/23 12:19:53;;;;;;;2.20;1.27;;;29.20;47.30;;;;;;5095199;28;20710;-45
2022/10/23 12:22:21;;;;;;;1.30;0.90;;;29.10;47.30;;;;;;5094155;28;20755;-43
2022/10/23 12:25:13;;;;;;;2.67;1.10;;;29.00;47.20;;;;;;5094092;28;20417;-44
2022/10/23 12:28:13;;;;;;;1.30;0.90;;;29.00;47.30;;;;;;5074738;28;20469;-46
2022/10/23 12:30:52;;;;;;;2.17;1.03;;;29.10;47.60;;;;;;5088392;28;20684;-44
2022/10/23 12:33:31;;;;;;;1.17;0.80;;;29.10;47.80;;;;;;5094620;28;20410;-43
2022/10/23 12:36:06;;;;;;;1.27;0.97;;;29.10;47.70;;;;;;5093133;28;20439;-47
2022/10/23 12:38:32;;;;;;;1.63;1.10;;;29.10;47.60;;;;;;5095783;28;20499;-43
2022/10/23 12:41:09;;;;;;;1.27;0.70;;;29.20;47.20;;;;;;5093554;28;20846;-44
2022/10/23 12:43:36;;;;;;;1.30;0.80;;;29.60;47.30;;;;;;5092587;28;20410;-44
2022/10/23 12:46:35;;;;;;;1.40;0.90;;;30.10;46.60;;;;;;5093546;28;20848;-45
2022/10/23 12:49:03;;;;;;;2.13;0.90;;;30.90;45.40;;;;;;5094144;28;20727;-45
2022/10/23 12:51:33;;;;;;;1.47;0.90;;;31.70;45.00;;;;;;5092422;28;20424;-44
2022/10/23 12:54:01;;;;;;;1.30;0.90;;;32.50;43.90;;;;;;5094508;28;20397;-44
2022/10/23 12:56:32;;;;;;;1.67;1.07;;;33.30;43.40;;;;;;5093527;28;20681;-44
2022/10/23 12:59:01;;;;;;;2.47;0.80;;;34.10;41.60;;;;;;5093532;28;20494;-42
2022/10/23 13:01:33;;;;;;;1.30;0.90;;;34.70;41.40;;;;;;5093326;28;21086;-42
2022/10/23 13:04:25;;;;;;;1.33;1.00;;;35.00;40.70;;;;;;5095320;28;20505;-43
2022/10/23 13:06:52;;;;;;;1.30;0.70;;;35.40;40.70;;;;;;5069926;28;20481;-45
2022/10/23 13:09:33;;;;;;;1.40;1.10;;;35.70;39.80;;;;;;5077775;28;20558;-44